BUCHANAN DAM (BUC)

Elevation: 450' · CHOWCHILLA R basin · Operator: US Army Corps of Engineers

Provisional data, subject to change.
Query executed Tuesday at 8:13:04   clock

Select a sensor type for a plot of data.
Note: Reservoir Flows are daily averages.

Earlier

Date RES ELE    STORAGE    RES CHG    TOC STO    ABV TOC    OUTFLOW    INFLOW    PPT INC    TEMP MN    TEMP MX   
 FEET   AF   AF   AF   AF   CFS   CFS   INCHES   DEG F   DEG F  
06/29/2015 469.02 11671 -16 150000 -138329 0 -3 -- 20 39
06/30/2015 469.00 11660 -11 150000 -138340 0 0 -- 23 43
07/01/2015 468.98 11650 -10 150000 -138350 0 -1 -- 25 38
07/02/2015 468.96 11639 -11 150000 -138361 0 -1 -- 25 38
07/03/2015 468.94 11629 -10 150000 -138371 415 415 -- 22 40
07/04/2015 468.91 11613 -16 150000 -138387 0 -5 -- 22 41
07/05/2015 468.89 11603 -10 150000 -138397 0 0 -- 21 37
07/06/2015 468.85 11582 -21 150000 -138418 0 -5 -- 19 35
07/07/2015 468.83 11572 -10 150000 -138428 0 0 -- 18 35
07/08/2015 468.80 11556 -16 150000 -138444 0 -3 -- 17 34
07/09/2015 468.77 11540 -16 150000 -138460 0 -4 -- 15 29
07/10/2015 468.75 11530 -10 150000 -138470 0 -1 -- 17 30
07/11/2015 468.73 11520 -10 150000 -138480 0 -0 -- 15 33
07/12/2015 468.70 11504 -16 150000 -138496 0 -3 -- 17 34
07/13/2015 468.68 11494 -10 150000 -138506 0 0 -- 18 36
07/14/2015 468.65 11478 -16 150000 -138522 0 -3 -- 17 36
07/15/2015 468.63 11468 -10 150000 -138532 0 -0 -- 15 36
07/16/2015 468.60 11452 -16 150000 -138548 0 -3 -- 19 38
07/17/2015 468.58 11442 -10 150000 -138558 0 0 -- 19 39
07/18/2015 468.55 11426 -16 150000 -138574 0 -2 -- 19 38
07/19/2015 468.53 11416 -10 150000 -138584 0 -1 -- 21 34
07/20/2015 468.51 11406 -10 150000 -138594 0 0 -- 23 37
07/21/2015 468.49 11395 -11 150000 -138605 0 -0 -- 25 39
07/22/2015 468.45 11375 -20 150000 -138625 0 -5 -- 20 37
07/23/2015 468.42 11359 -16 150000 -138641 0 -3 -- 16 34
07/24/2015 468.40 11349 -10 150000 -138651 0 0 -- 16 37
07/25/2015 468.37 11333 -16 150000 -138667 0 -3 -- 18 37
07/26/2015 468.34 11318 -15 150000 -138682 0 -3 -- 17 36
07/27/2015 468.31 11302 -16 150000 -138698 0 -3 -- 16 37
07/28/2015 -- -- -- -- -- -- -- -- -- --

Later | Latest

Warning! This data is preliminary and subject to revision.

Show BUC Map | Plot BUC Data | 1 Month BUC Data | Real-Time BUC Data | BUC Info